createdAt,value
2022-10-21T00:01:33.210Z,14.03
2022-10-21T00:06:35.608Z,13.91
2022-10-21T00:11:37.946Z,13.68
2022-10-21T00:16:40.439Z,13.55
2022-10-21T00:21:42.978Z,13.32
2022-10-21T00:26:45.174Z,13.39
2022-10-21T00:31:47.532Z,13.35
2022-10-21T00:36:49.998Z,13.32
2022-10-21T00:41:52.358Z,13.09
2022-10-21T00:46:59.653Z,13.08
2022-10-21T00:52:04.465Z,12.92
2022-10-21T00:57:08.040Z,13.00
2022-10-21T01:02:10.802Z,13.07
2022-10-21T01:07:14.418Z,13.00
2022-10-21T01:12:31.242Z,12.84
2022-10-21T01:17:44.097Z,13.09
2022-10-21T01:23:32.214Z,13.14
2022-10-21T01:28:48.772Z,13.10
2022-10-21T01:34:18.114Z,13.08
2022-10-21T01:39:57.536Z,13.00
2022-10-21T01:45:13.129Z,12.91
2022-10-21T01:50:21.393Z,12.87
2022-10-21T01:55:27.453Z,12.70
2022-10-21T02:00:30.696Z,12.93
2022-10-21T02:05:34.740Z,12.91
2022-10-21T02:10:46.609Z,12.92
2022-10-21T02:15:48.923Z,12.69
2022-10-21T02:20:56.649Z,12.64
2022-10-21T02:25:59.095Z,12.61
2022-10-21T02:31:20.179Z,12.78
2022-10-21T02:36:45.484Z,12.69
2022-10-21T02:41:49.105Z,12.74
2022-10-21T02:46:52.750Z,12.49
2022-10-21T02:51:55.086Z,12.46
2022-10-21T02:56:57.404Z,12.30
2022-10-21T03:01:59.988Z,12.37
2022-10-21T03:07:02.554Z,12.34
2022-10-21T03:12:04.794Z,12.34
2022-10-21T03:17:07.014Z,12.38
2022-10-21T03:22:09.212Z,12.21
2022-10-21T03:27:11.396Z,12.27
2022-10-21T03:32:13.593Z,12.30
2022-10-21T03:37:15.777Z,12.28
2022-10-21T03:42:18.036Z,12.06
2022-10-21T03:47:20.205Z,12.05
2022-10-21T03:52:22.382Z,11.90
2022-10-21T03:57:24.557Z,11.88
2022-10-21T04:02:26.907Z,11.81
2022-10-21T04:07:29.296Z,11.83
2022-10-21T04:12:31.432Z,12.01
2022-10-21T04:17:33.748Z,12.11
2022-10-21T04:22:36.396Z,12.13
2022-10-21T04:27:38.809Z,12.19
2022-10-21T04:32:41.619Z,12.17
2022-10-21T04:37:44.666Z,12.29
2022-10-21T04:42:50.656Z,12.26
2022-10-21T04:47:52.938Z,12.24
2022-10-21T04:52:55.089Z,12.08
2022-10-21T04:57:57.440Z,11.98
2022-10-21T05:03:00.238Z,12.07
2022-10-21T05:08:02.582Z,12.16
2022-10-21T05:13:04.926Z,12.16
2022-10-21T05:18:07.474Z,12.27
2022-10-21T05:23:09.781Z,12.17
2022-10-21T05:28:11.989Z,12.21
2022-10-21T05:33:14.638Z,11.81
2022-10-21T05:38:16.960Z,11.88
2022-10-21T05:43:19.629Z,11.77
2022-10-21T05:48:22.026Z,11.85
2022-10-21T05:53:25.157Z,12.01
2022-10-21T05:58:28.343Z,11.94
2022-10-21T06:03:33.391Z,12.07
2022-10-21T06:08:37.997Z,11.98
2022-10-21T06:13:41.338Z,12.32
2022-10-21T06:18:43.871Z,12.52
2022-10-21T06:23:46.032Z,12.42
2022-10-21T06:28:48.407Z,12.75
2022-10-21T06:33:50.728Z,12.82
2022-10-21T06:38:53.295Z,12.93
2022-10-21T06:43:55.510Z,13.06
2022-10-21T06:48:58.099Z,12.85
2022-10-21T06:54:00.766Z,13.07
2022-10-21T06:59:03.127Z,13.00
2022-10-21T07:04:06.459Z,13.15
2022-10-21T07:09:09.248Z,13.28
2022-10-21T07:14:12.922Z,13.53
2022-10-21T07:19:15.473Z,13.65
2022-10-21T07:24:22.181Z,13.85
2022-10-21T07:29:25.005Z,13.81
2022-10-21T07:34:27.348Z,14.12
2022-10-21T07:39:29.873Z,14.18
2022-10-21T07:44:32.103Z,14.26
2022-10-21T07:49:34.331Z,14.40
2022-10-21T07:54:36.805Z,14.45
2022-10-21T07:59:39.187Z,14.57
2022-10-21T08:04:41.584Z,14.44
2022-10-21T08:09:43.789Z,14.60
2022-10-21T08:14:46.091Z,14.64
2022-10-21T08:19:48.722Z,14.75
2022-10-21T08:24:50.987Z,14.86
2022-10-21T08:29:53.172Z,15.03
2022-10-21T08:34:55.655Z,15.07
2022-10-21T08:39:58.433Z,15.28
2022-10-21T08:45:07.490Z,15.39
2022-10-21T08:50:22.336Z,15.49
2022-10-21T08:55:33.756Z,15.59
2022-10-21T09:01:04.429Z,15.79
2022-10-21T09:06:40.164Z,15.93
2022-10-21T09:11:47.296Z,16.12
2022-10-21T09:17:05.911Z,16.35
2022-10-21T09:22:45.394Z,16.46
2022-10-21T09:27:56.052Z,16.51
2022-10-21T09:33:00.676Z,16.74
2022-10-21T09:38:07.254Z,16.85
2022-10-21T09:43:18.880Z,16.88
2022-10-21T09:48:26.076Z,17.16
2022-10-21T09:53:34.829Z,17.34
2022-10-21T09:58:37.028Z,17.44
2022-10-21T10:03:46.462Z,17.60
2022-10-21T10:08:49.021Z,17.76
2022-10-21T10:13:53.582Z,18.05
2022-10-21T10:19:22.390Z,18.17
2022-10-21T10:24:24.609Z,18.17
2022-10-21T10:29:29.397Z,18.30
2022-10-21T10:34:37.904Z,18.55
2022-10-21T10:39:40.825Z,18.54
2022-10-21T10:44:45.141Z,18.78
2022-10-21T10:49:47.954Z,18.82
2022-10-21T10:55:12.842Z,19.00
2022-10-21T11:00:21.247Z,19.29
2022-10-21T11:11:48.904Z,19.52
2022-10-21T11:17:09.735Z,19.71
2022-10-21T11:22:50.295Z,19.86
2022-10-21T11:28:04.876Z,20.03
2022-10-21T11:34:01.586Z,20.08
2022-10-21T11:39:32.851Z,20.23
2022-10-21T11:44:55.328Z,20.36
2022-10-21T11:50:12.273Z,20.39
2022-10-21T11:55:25.961Z,20.61
2022-10-21T12:00:31.647Z,20.70
2022-10-21T12:05:55.285Z,20.81
2022-10-21T12:11:00.491Z,21.02
2022-10-21T12:16:12.290Z,21.03
2022-10-21T12:21:22.187Z,21.22
2022-10-21T12:26:32.621Z,21.15
2022-10-21T12:31:51.892Z,21.28
2022-10-21T12:36:55.416Z,21.56
2022-10-21T12:42:24.885Z,21.82
2022-10-21T12:47:35.075Z,22.01
2022-10-21T12:52:39.458Z,22.01
2022-10-21T12:57:42.633Z,22.23
2022-10-21T13:02:57.454Z,22.31
2022-10-21T13:08:27.572Z,22.35
2022-10-21T13:13:39.910Z,22.58
2022-10-21T13:18:52.061Z,22.64
2022-10-21T13:23:55.478Z,22.65
2022-10-21T13:29:02.174Z,22.75
2022-10-21T13:34:04.713Z,22.71
2022-10-21T13:39:24.846Z,22.81
2022-10-21T13:44:35.850Z,22.95
2022-10-21T13:49:38.432Z,22.83
2022-10-21T13:54:40.633Z,22.89
2022-10-21T13:59:42.898Z,23.09
2022-10-21T14:04:45.211Z,23.19
2022-10-21T14:09:55.338Z,23.20
2022-10-21T14:15:02.216Z,23.29
2022-10-21T14:20:14.371Z,23.28
2022-10-21T14:25:18.233Z,23.35
2022-10-21T14:30:26.389Z,23.36
2022-10-21T14:35:30.621Z,23.32
2022-10-21T14:40:41.993Z,23.24
2022-10-21T14:45:49.792Z,23.02
2022-10-21T14:50:55.630Z,22.76
2022-10-21T14:56:00.710Z,22.37
2022-10-21T15:01:19.973Z,21.97
2022-10-21T15:06:26.769Z,21.38
2022-10-21T15:11:29.457Z,21.10
2022-10-21T15:16:31.779Z,20.65
2022-10-21T15:22:02.150Z,20.36
2022-10-21T15:27:05.772Z,19.95
2022-10-21T15:32:10.957Z,19.76
2022-10-21T15:37:13.157Z,19.56
2022-10-21T15:42:18.803Z,19.33
2022-10-21T15:47:21.190Z,18.95
2022-10-21T15:52:23.574Z,18.91
2022-10-21T15:57:25.847Z,18.71
2022-10-21T16:02:28.059Z,18.52
2022-10-21T16:07:33.016Z,18.43
2022-10-21T16:12:35.417Z,18.24
2022-10-21T16:17:37.746Z,18.14
2022-10-21T16:22:40.325Z,18.03
2022-10-21T16:27:55.218Z,17.77
2022-10-21T16:32:58.161Z,17.77
2022-10-21T16:38:00.403Z,17.70
2022-10-21T16:43:02.674Z,17.50
2022-10-21T16:48:05.676Z,17.51
2022-10-21T16:53:13.185Z,17.38
2022-10-21T16:58:15.431Z,17.34
2022-10-21T17:03:17.685Z,17.24
2022-10-21T17:08:19.920Z,16.99
2022-10-21T17:13:22.395Z,17.11
2022-10-21T17:18:24.606Z,16.98
2022-10-21T17:23:29.628Z,17.04
2022-10-21T17:28:32.195Z,16.95
2022-10-21T17:33:34.528Z,16.75
2022-10-21T17:38:37.267Z,16.95
2022-10-21T17:43:39.659Z,16.78
2022-10-21T17:48:42.103Z,16.73
2022-10-21T17:53:44.604Z,16.75
2022-10-21T17:58:51.164Z,16.62
2022-10-21T18:03:54.355Z,16.64
2022-10-21T18:08:59.722Z,16.52
2022-10-21T18:14:02.837Z,16.59
2022-10-21T18:19:05.040Z,16.47
2022-10-21T18:24:11.455Z,16.29
2022-10-21T18:29:14.733Z,16.46
2022-10-21T18:34:17.103Z,16.42
2022-10-21T18:39:20.272Z,16.26
2022-10-21T18:44:22.550Z,16.19
2022-10-21T18:49:24.922Z,16.03
2022-10-21T18:54:27.253Z,16.00
2022-10-21T18:59:29.435Z,15.83
2022-10-21T19:04:31.734Z,15.91
2022-10-21T19:09:34.223Z,15.76
2022-10-21T19:14:36.584Z,15.55
2022-10-21T19:19:39.630Z,15.46
2022-10-21T19:24:42.069Z,15.38
2022-10-21T19:29:45.445Z,15.12
2022-10-21T19:34:47.905Z,15.05
2022-10-21T19:39:50.421Z,15.04
2022-10-21T19:44:53.225Z,14.94
2022-10-21T19:49:55.688Z,14.95
2022-10-21T19:54:58.387Z,14.94
2022-10-21T20:00:00.854Z,14.89
2022-10-21T20:05:03.454Z,14.73
2022-10-21T20:10:06.646Z,14.68
2022-10-21T20:15:09.652Z,14.61
2022-10-21T20:20:12.094Z,14.47
2022-10-21T20:25:14.519Z,14.36
2022-10-21T20:30:17.231Z,14.35
2022-10-21T20:35:20.568Z,14.27
2022-10-21T20:40:23.143Z,14.31
2022-10-21T20:45:25.433Z,14.16
2022-10-21T20:50:28.136Z,14.24
2022-10-21T20:55:30.574Z,14.08
2022-10-21T21:06:13.865Z,13.93
2022-10-21T21:11:16.662Z,14.01
2022-10-21T21:16:21.564Z,13.94
2022-10-21T21:21:26.134Z,13.86
2022-10-21T21:26:30.054Z,13.86
2022-10-21T21:31:32.598Z,13.78
2022-10-21T21:36:35.088Z,13.79
2022-10-21T21:41:38.209Z,13.87
2022-10-21T21:46:55.985Z,13.78
2022-10-21T21:52:00.027Z,13.73
2022-10-21T21:57:28.983Z,13.63
2022-10-21T22:02:24.836Z,13.51
2022-10-21T22:07:26.995Z,13.38
2022-10-21T22:12:29.420Z,13.40
2022-10-21T22:17:31.684Z,13.43
2022-10-21T22:22:37.376Z,13.32
2022-10-21T22:27:40.613Z,13.58
2022-10-21T22:32:43.338Z,13.48
2022-10-21T22:37:45.601Z,13.41
2022-10-21T22:42:47.797Z,13.33
2022-10-21T22:47:50.162Z,13.36
2022-10-21T22:52:52.499Z,13.09
2022-10-21T22:57:54.709Z,13.25
2022-10-21T23:02:56.904Z,13.26
2022-10-21T23:07:59.168Z,13.25
2022-10-21T23:13:01.428Z,13.23
2022-10-21T23:18:04.333Z,13.26
2022-10-21T23:23:07.085Z,13.29
2022-10-21T23:28:10.149Z,13.22
2022-10-21T23:33:12.378Z,13.17
2022-10-21T23:38:14.607Z,13.21
2022-10-21T23:43:16.887Z,13.17
2022-10-21T23:48:19.146Z,13.09
2022-10-21T23:53:21.411Z,13.09
2022-10-21T23:58:23.780Z,13.12
